createdAt,value
2023-02-04T00:02:23.371Z,92.06
2023-02-04T00:04:50.538Z,92.22
2023-02-04T00:07:18.596Z,92.26
2023-02-04T00:09:47.370Z,92.08
2023-02-04T00:12:14.206Z,92.31
2023-02-04T00:14:41.010Z,92.35
2023-02-04T00:17:10.594Z,92.40
2023-02-04T00:19:38.168Z,92.21
2023-02-04T00:22:07.186Z,92.14
2023-02-04T00:24:34.308Z,92.42
2023-02-04T00:27:01.189Z,92.66
2023-02-04T00:29:28.112Z,92.65
2023-02-04T00:31:55.089Z,92.47
2023-02-04T00:34:22.168Z,92.49
2023-02-04T00:36:49.272Z,92.40
2023-02-04T00:39:17.179Z,92.45
2023-02-04T00:41:44.163Z,92.37
2023-02-04T00:44:14.329Z,92.47
2023-02-04T00:46:41.325Z,92.69
2023-02-04T00:49:10.647Z,92.84
2023-02-04T00:51:37.452Z,92.59
2023-02-04T00:54:05.287Z,92.66
2023-02-04T00:56:32.061Z,92.98
2023-02-04T00:58:59.119Z,92.72
2023-02-04T01:01:26.296Z,92.92
2023-02-04T01:03:53.067Z,92.78
2023-02-04T01:06:19.841Z,92.72
2023-02-04T01:08:46.896Z,92.97
2023-02-04T01:11:13.709Z,92.82
2023-02-04T01:13:40.472Z,92.98
2023-02-04T01:16:07.728Z,92.93
2023-02-04T01:18:34.603Z,92.96
2023-02-04T01:21:01.461Z,92.71
2023-02-04T01:23:28.489Z,93.00
2023-02-04T01:25:55.326Z,92.96
2023-02-04T01:28:22.180Z,92.51
2023-02-04T01:30:49.346Z,92.58
2023-02-04T01:33:16.159Z,92.43
2023-02-04T01:35:43.373Z,92.38
2023-02-04T01:38:10.493Z,92.27
2023-02-04T01:40:37.519Z,92.28
2023-02-04T01:43:04.609Z,92.03
2023-02-04T01:45:34.622Z,92.07
2023-02-04T01:48:01.560Z,92.61
2023-02-04T01:50:28.576Z,92.39
2023-02-04T01:52:55.841Z,92.09
2023-02-04T01:55:26.553Z,92.07
2023-02-04T01:57:54.186Z,92.08
2023-02-04T02:00:26.422Z,92.19
2023-02-04T02:02:54.668Z,92.16
2023-02-04T02:05:25.502Z,92.34
2023-02-04T02:07:55.258Z,92.16
2023-02-04T02:10:22.944Z,92.01
2023-02-04T02:12:50.967Z,92.08
2023-02-04T02:15:18.652Z,91.91
2023-02-04T02:17:46.293Z,91.90
2023-02-04T02:20:17.325Z,91.85
2023-02-04T02:22:52.708Z,91.74
2023-02-04T02:25:19.812Z,91.84
2023-02-04T02:27:47.013Z,91.72
2023-02-04T02:30:17.728Z,91.88
2023-02-04T02:32:45.360Z,91.70
2023-02-04T02:35:13.066Z,91.49
2023-02-04T02:37:39.932Z,91.33
2023-02-04T02:40:08.338Z,91.38
2023-02-04T02:42:35.586Z,91.09
2023-02-04T02:45:04.453Z,90.85
2023-02-04T02:47:31.350Z,90.77
2023-02-04T02:49:59.312Z,91.26
2023-02-04T02:52:26.213Z,90.97
2023-02-04T02:54:53.829Z,90.84
2023-02-04T02:57:24.162Z,90.79
2023-02-04T02:59:51.516Z,90.78
2023-02-04T03:02:22.845Z,90.37
2023-02-04T03:04:54.893Z,90.63
2023-02-04T03:07:24.492Z,90.62
2023-02-04T03:09:53.698Z,90.66
2023-02-04T03:12:21.056Z,90.39
2023-02-04T03:14:48.517Z,90.29
2023-02-04T03:17:15.363Z,90.32
2023-02-04T03:19:42.562Z,90.39
2023-02-04T03:22:10.108Z,90.44
2023-02-04T03:24:37.541Z,90.49
2023-02-04T03:27:05.041Z,90.38
2023-02-04T03:29:31.875Z,90.40
2023-02-04T03:32:00.217Z,90.44
2023-02-04T03:34:27.195Z,90.33
2023-02-04T03:36:54.245Z,90.43
2023-02-04T03:39:20.995Z,90.26
2023-02-04T03:41:47.766Z,90.26
2023-02-04T03:44:14.564Z,90.30
2023-02-04T03:46:41.344Z,90.28
2023-02-04T03:49:08.189Z,90.35
2023-02-04T03:51:34.995Z,90.31
2023-02-04T03:54:01.772Z,90.12
2023-02-04T03:56:28.929Z,89.74
2023-02-04T03:58:55.732Z,89.69
2023-02-04T04:01:22.944Z,89.65
2023-02-04T04:03:49.732Z,89.25
2023-02-04T04:06:16.498Z,89.37
2023-02-04T04:08:43.252Z,89.23
2023-02-04T04:11:12.586Z,89.43
2023-02-04T04:13:39.273Z,89.20
2023-02-04T04:16:07.008Z,89.24
2023-02-04T04:18:34.734Z,89.37
2023-02-04T04:21:01.659Z,89.31
2023-02-04T04:23:28.568Z,89.53
2023-02-04T04:25:55.359Z,89.56
2023-02-04T04:28:22.091Z,89.48
2023-02-04T04:30:48.977Z,89.76
2023-02-04T04:33:16.130Z,89.86
2023-02-04T04:35:42.975Z,89.62
2023-02-04T04:38:09.786Z,90.10
2023-02-04T04:40:36.924Z,90.11
2023-02-04T04:43:03.805Z,90.02
2023-02-04T04:45:30.738Z,90.24
2023-02-04T04:47:57.575Z,90.22
2023-02-04T04:50:24.366Z,90.25
2023-02-04T04:52:51.225Z,90.24
2023-02-04T04:55:18.385Z,90.24
2023-02-04T04:57:45.112Z,90.16
2023-02-04T05:00:19.104Z,90.25
2023-02-04T05:02:46.039Z,90.23
2023-02-04T05:05:13.623Z,90.08
2023-02-04T05:07:40.387Z,90.22
2023-02-04T05:10:08.102Z,90.45
2023-02-04T05:12:35.242Z,90.19
2023-02-04T05:15:02.023Z,90.23
2023-02-04T05:17:28.968Z,90.17
2023-02-04T05:19:55.828Z,90.36
2023-02-04T05:22:22.792Z,90.19
2023-02-04T05:24:49.677Z,90.26
2023-02-04T05:27:16.434Z,90.12
2023-02-04T05:29:43.213Z,90.17
2023-02-04T05:32:09.983Z,90.06
2023-02-04T05:34:37.705Z,90.03
2023-02-04T05:37:05.618Z,89.71
2023-02-04T05:39:32.376Z,89.62
2023-02-04T05:41:59.136Z,89.67
2023-02-04T05:44:27.467Z,89.48
2023-02-04T05:46:54.477Z,89.15
2023-02-04T05:49:21.310Z,89.26
2023-02-04T05:51:48.221Z,88.90
2023-02-04T05:54:19.596Z,88.91
2023-02-04T05:56:46.484Z,88.81
2023-02-04T05:59:13.512Z,88.75
2023-02-04T06:01:40.330Z,88.57
2023-02-04T06:04:07.651Z,88.45
2023-02-04T06:06:34.609Z,88.43
2023-02-04T06:09:01.409Z,87.90
2023-02-04T06:11:28.230Z,87.72
2023-02-04T06:13:55.070Z,87.91
2023-02-04T06:16:21.973Z,88.06
2023-02-04T06:18:48.831Z,88.01
2023-02-04T06:21:16.046Z,87.92
2023-02-04T06:23:42.909Z,88.08
2023-02-04T06:26:09.878Z,87.90
2023-02-04T06:28:37.344Z,87.95
2023-02-04T06:31:04.730Z,87.41
2023-02-04T06:33:31.575Z,87.17
2023-02-04T06:35:58.651Z,87.50
2023-02-04T06:38:25.919Z,87.20
2023-02-04T06:40:53.847Z,86.78
2023-02-04T06:43:21.821Z,86.80
2023-02-04T06:45:48.651Z,86.85
2023-02-04T06:48:15.476Z,86.55
2023-02-04T06:50:42.416Z,86.38
2023-02-04T06:53:09.226Z,86.14
2023-02-04T06:55:36.070Z,86.32
2023-02-04T06:58:03.068Z,86.45
2023-02-04T07:00:31.151Z,86.73
2023-02-04T07:02:58.674Z,86.61
2023-02-04T07:05:25.700Z,86.33
2023-02-04T07:07:52.481Z,86.29
2023-02-04T07:10:21.025Z,86.04
2023-02-04T07:12:48.493Z,85.66
2023-02-04T07:15:18.276Z,85.70
2023-02-04T07:17:47.328Z,84.82
2023-02-04T07:20:15.230Z,84.34
2023-02-04T07:22:42.561Z,83.68
2023-02-04T07:25:11.535Z,82.07
2023-02-04T07:27:38.668Z,80.68
2023-02-04T07:30:05.941Z,79.46
2023-02-04T07:32:33.696Z,78.75
2023-02-04T07:35:00.578Z,76.72
2023-02-04T07:37:27.645Z,75.66
2023-02-04T07:39:55.066Z,74.20
2023-02-04T07:42:22.171Z,74.18
2023-02-04T07:44:53.050Z,72.10
2023-02-04T07:47:21.485Z,74.32
2023-02-04T07:49:48.282Z,73.67
2023-02-04T07:52:15.181Z,74.56
2023-02-04T07:54:43.057Z,70.88
2023-02-04T07:57:10.382Z,72.00
2023-02-04T07:59:37.307Z,70.67
2023-02-04T08:02:04.633Z,71.01
2023-02-04T08:04:31.497Z,71.04
2023-02-04T08:06:58.521Z,69.96
2023-02-04T08:09:27.236Z,68.12
2023-02-04T08:11:54.147Z,67.37
2023-02-04T08:14:21.255Z,67.19
2023-02-04T08:16:48.372Z,65.66
2023-02-04T08:19:19.050Z,65.44
2023-02-04T08:21:46.844Z,64.38
2023-02-04T08:24:14.187Z,63.19
2023-02-04T08:26:41.321Z,63.20
2023-02-04T08:29:08.417Z,61.14
2023-02-04T08:31:36.758Z,60.45
2023-02-04T08:34:03.848Z,61.92
2023-02-04T08:36:30.785Z,61.32
2023-02-04T08:38:57.791Z,63.05
2023-02-04T08:41:24.864Z,61.57
2023-02-04T08:43:51.775Z,60.71
2023-02-04T08:46:18.593Z,60.90
2023-02-04T08:48:45.406Z,59.38
2023-02-04T08:51:12.258Z,58.61
2023-02-04T08:53:40.791Z,60.17
2023-02-04T08:56:08.997Z,57.60
2023-02-04T08:58:35.942Z,55.59
2023-02-04T09:01:03.266Z,52.20
2023-02-04T09:03:30.106Z,54.99
2023-02-04T09:05:56.978Z,55.06
2023-02-04T09:08:24.262Z,54.69
2023-02-04T09:10:51.099Z,53.03
2023-02-04T09:13:17.950Z,53.31
2023-02-04T09:15:44.952Z,53.95
2023-02-04T09:18:17.063Z,52.91
2023-02-04T09:20:44.455Z,53.55
2023-02-04T09:23:12.278Z,52.46
2023-02-04T09:25:39.127Z,52.46
2023-02-04T09:28:06.963Z,53.05
2023-02-04T09:30:34.322Z,51.93
2023-02-04T09:33:01.917Z,50.87
2023-02-04T09:35:28.955Z,49.58
2023-02-04T09:37:59.347Z,48.39
2023-02-04T09:40:34.806Z,47.89
2023-02-04T09:43:02.035Z,46.09
2023-02-04T09:45:30.827Z,47.58
2023-02-04T09:47:59.922Z,46.75
2023-02-04T09:50:28.709Z,46.28
2023-02-04T09:52:58.734Z,45.64
2023-02-04T09:55:29.683Z,45.35
2023-02-04T09:57:57.029Z,45.43
2023-02-04T10:00:27.777Z,45.52
2023-02-04T10:02:55.398Z,45.22
2023-02-04T10:05:29.219Z,44.64
2023-02-04T10:07:56.928Z,45.91
2023-02-04T10:10:27.353Z,46.97
2023-02-04T10:12:57.374Z,46.66
2023-02-04T10:15:24.610Z,45.99
2023-02-04T10:17:55.277Z,45.29
2023-02-04T10:20:24.995Z,46.35
2023-02-04T10:22:55.199Z,46.48
2023-02-04T10:25:23.928Z,45.36
2023-02-04T10:27:58.105Z,44.86
2023-02-04T10:30:28.134Z,44.65
2023-02-04T10:32:55.778Z,46.60
2023-02-04T10:35:25.129Z,46.73
2023-02-04T10:38:06.084Z,47.84
2023-02-04T10:40:34.668Z,46.39
2023-02-04T10:43:09.168Z,46.36
2023-02-04T10:45:35.940Z,46.98
2023-02-04T10:48:02.722Z,47.35
2023-02-04T10:50:30.859Z,47.95
2023-02-04T10:53:19.708Z,48.78
2023-02-04T10:55:47.827Z,49.27
2023-02-04T10:58:18.061Z,49.55
2023-02-04T11:00:44.806Z,50.85
2023-02-04T11:03:16.190Z,51.66
2023-02-04T11:05:43.024Z,52.41
2023-02-04T11:08:24.400Z,53.12
2023-02-04T11:10:56.159Z,53.91
2023-02-04T11:13:29.099Z,54.59
2023-02-04T11:16:11.957Z,55.20
2023-02-04T11:18:50.817Z,56.33
2023-02-04T11:21:25.387Z,57.04
2023-02-04T11:24:04.121Z,56.98
2023-02-04T11:26:37.285Z,57.05
2023-02-04T11:29:31.238Z,56.86
2023-02-04T11:32:03.862Z,56.97
2023-02-04T11:34:47.797Z,56.85
2023-02-04T11:37:19.704Z,57.45
2023-02-04T11:39:51.191Z,57.54
2023-02-04T11:42:21.722Z,57.47
2023-02-04T11:44:56.905Z,57.66
2023-02-04T11:47:26.666Z,57.76
2023-02-04T11:49:59.929Z,58.05
2023-02-04T11:52:26.893Z,58.35
2023-02-04T11:54:58.997Z,58.84
2023-02-04T11:57:26.208Z,59.16
2023-02-04T11:59:53.269Z,59.78
2023-02-04T12:02:22.009Z,59.91
2023-02-04T12:04:57.653Z,59.20
2023-02-04T12:07:31.848Z,59.13
2023-02-04T12:09:59.443Z,58.92
2023-02-04T12:12:31.395Z,59.20
2023-02-04T12:15:06.228Z,59.65
2023-02-04T12:17:33.395Z,59.89
2023-02-04T12:20:00.354Z,60.07
2023-02-04T12:22:27.530Z,59.86
2023-02-04T12:24:54.500Z,59.93
2023-02-04T12:27:23.253Z,60.11
2023-02-04T12:29:50.485Z,60.28
2023-02-04T12:32:17.462Z,60.43
2023-02-04T12:34:46.456Z,60.81
2023-02-04T12:37:13.567Z,60.76
2023-02-04T12:39:40.917Z,61.50
2023-02-04T12:42:08.611Z,61.91
2023-02-04T12:44:36.366Z,62.50
2023-02-04T12:47:03.908Z,62.86
2023-02-04T12:49:30.872Z,63.23
2023-02-04T12:52:02.230Z,63.67
2023-02-04T12:54:29.884Z,63.64
2023-02-04T12:56:58.302Z,63.66
2023-02-04T12:59:25.561Z,63.63
2023-02-04T13:01:53.075Z,63.78
2023-02-04T13:04:20.315Z,63.88
2023-02-04T13:06:47.191Z,63.98
2023-02-04T13:09:17.148Z,64.07
2023-02-04T13:11:44.182Z,64.63
2023-02-04T13:14:11.098Z,64.39
2023-02-04T13:16:38.057Z,64.12
2023-02-04T13:19:06.060Z,63.68
2023-02-04T13:21:32.963Z,63.42
2023-02-04T13:24:00.865Z,62.93
2023-02-04T13:26:28.255Z,63.17
2023-02-04T13:28:55.138Z,63.59
2023-02-04T13:31:22.327Z,63.84
2023-02-04T13:33:49.284Z,63.78
2023-02-04T13:36:16.427Z,63.72
2023-02-04T13:38:43.567Z,63.09
2023-02-04T13:41:10.698Z,62.51
2023-02-04T13:43:37.694Z,62.62
2023-02-04T13:46:06.329Z,62.33
2023-02-04T13:48:35.179Z,62.30
2023-02-04T13:51:03.291Z,61.97
2023-02-04T13:53:31.206Z,61.42
2023-02-04T13:55:58.713Z,62.01
2023-02-04T13:58:25.742Z,61.91
2023-02-04T14:00:57.484Z,61.09
2023-02-04T14:03:26.303Z,61.31
2023-02-04T14:05:53.689Z,61.37
2023-02-04T14:08:20.901Z,61.59
2023-02-04T14:10:48.230Z,61.52
2023-02-04T14:13:15.464Z,61.69
2023-02-04T14:15:42.617Z,61.91
2023-02-04T14:18:10.298Z,61.73
2023-02-04T14:20:37.152Z,61.49
2023-02-04T14:23:05.124Z,61.47
2023-02-04T14:25:32.232Z,61.69
2023-02-04T14:28:00.294Z,61.96
2023-02-04T14:30:29.592Z,62.18
2023-02-04T14:32:57.640Z,62.17
2023-02-04T14:35:26.136Z,62.09
2023-02-04T14:37:53.194Z,61.79
2023-02-04T14:40:21.413Z,62.12
2023-02-04T14:42:48.459Z,61.70
2023-02-04T14:45:17.231Z,61.20
2023-02-04T14:47:44.793Z,61.75
2023-02-04T14:50:15.596Z,61.93
2023-02-04T14:52:43.561Z,61.38
2023-02-04T14:55:14.779Z,61.40
2023-02-04T14:57:42.106Z,61.82
2023-02-04T15:00:11.304Z,61.94
2023-02-04T15:02:39.338Z,61.97
2023-02-04T15:05:06.797Z,62.18
2023-02-04T15:07:33.758Z,62.32
2023-02-04T15:10:00.642Z,62.41
2023-02-04T15:12:27.725Z,62.44
2023-02-04T15:14:54.636Z,62.51
2023-02-04T15:17:21.428Z,62.71
2023-02-04T15:19:48.382Z,62.87
2023-02-04T15:22:15.985Z,62.86
2023-02-04T15:24:43.102Z,63.26
2023-02-04T15:27:09.935Z,63.05
2023-02-04T15:29:37.557Z,63.16
2023-02-04T15:32:04.610Z,63.24
2023-02-04T15:34:31.742Z,63.29
2023-02-04T15:36:58.521Z,63.35
2023-02-04T15:39:25.392Z,63.98
2023-02-04T15:41:52.408Z,63.86
2023-02-04T15:44:21.565Z,63.70
2023-02-04T15:46:49.846Z,63.90
2023-02-04T15:49:17.011Z,63.67
2023-02-04T15:51:43.794Z,63.91
2023-02-04T15:54:10.897Z,63.89
2023-02-04T15:56:39.226Z,63.80
2023-02-04T15:59:06.182Z,63.94
2023-02-04T16:01:33.113Z,64.07
2023-02-04T16:04:00.889Z,64.16
2023-02-04T16:06:27.958Z,64.29
2023-02-04T16:08:55.135Z,64.39
2023-02-04T16:11:22.188Z,64.53
2023-02-04T16:13:49.024Z,64.50
2023-02-04T16:16:16.291Z,64.76
2023-02-04T16:18:43.287Z,64.92
2023-02-04T16:21:10.076Z,65.07
2023-02-04T16:23:36.937Z,65.11
2023-02-04T16:26:03.804Z,65.14
2023-02-04T16:28:30.656Z,65.40
2023-02-04T16:30:57.633Z,65.32
2023-02-04T16:33:25.628Z,65.41
2023-02-04T16:36:03.953Z,65.13
2023-02-04T16:38:31.961Z,65.30
2023-02-04T16:40:58.936Z,65.58
2023-02-04T16:43:26.183Z,65.79
2023-02-04T16:45:53.500Z,65.52
2023-02-04T16:48:20.334Z,65.69
2023-02-04T16:50:47.854Z,65.82
2023-02-04T16:53:16.284Z,65.73
2023-02-04T16:55:43.537Z,65.74
2023-02-04T16:58:10.886Z,65.53
2023-02-04T17:00:38.822Z,65.66
2023-02-04T17:03:07.162Z,65.90
2023-02-04T17:05:34.588Z,65.45
2023-02-04T17:08:01.636Z,65.63
2023-02-04T17:10:42.589Z,65.76
2023-02-04T17:13:09.768Z,65.76
2023-02-04T17:15:36.614Z,65.97
2023-02-04T17:18:03.850Z,65.86
2023-02-04T17:20:30.738Z,66.04
2023-02-04T17:22:57.541Z,65.54
2023-02-04T17:25:25.090Z,65.89
2023-02-04T17:27:53.197Z,66.26
2023-02-04T17:30:22.389Z,66.13
2023-02-04T17:32:49.203Z,66.14
2023-02-04T17:35:17.553Z,66.45
2023-02-04T17:37:44.385Z,66.30
2023-02-04T17:40:13.843Z,66.70
2023-02-04T17:42:41.136Z,66.69
2023-02-04T17:45:10.554Z,66.85
2023-02-04T17:47:37.319Z,66.94
2023-02-04T17:50:05.762Z,67.26
2023-02-04T17:52:33.521Z,67.56
2023-02-04T17:55:00.643Z,67.47
2023-02-04T17:57:27.772Z,67.72
2023-02-04T17:59:54.748Z,67.94
2023-02-04T18:02:30.508Z,67.63
2023-02-04T18:05:01.658Z,68.05
2023-02-04T18:07:28.616Z,68.12
2023-02-04T18:10:02.177Z,68.43
2023-02-04T18:12:29.702Z,68.39
2023-02-04T18:14:57.120Z,68.57
2023-02-04T18:17:25.163Z,68.30
2023-02-04T18:19:52.472Z,68.38
2023-02-04T18:22:20.758Z,68.60
2023-02-04T18:24:48.992Z,68.51
2023-02-04T18:27:19.978Z,68.57
2023-02-04T18:29:49.587Z,68.78
2023-02-04T18:32:21.186Z,68.78
2023-02-04T18:34:50.152Z,68.80
2023-02-04T18:37:28.156Z,68.72
2023-02-04T18:39:58.063Z,68.95
2023-02-04T18:42:28.004Z,68.75
2023-02-04T18:44:56.833Z,69.05
2023-02-04T18:47:35.882Z,69.27
2023-02-04T18:50:17.364Z,69.22
2023-02-04T18:52:45.840Z,69.14
2023-02-04T18:55:28.764Z,68.90
2023-02-04T18:57:55.646Z,68.98
2023-02-04T19:00:30.900Z,69.10
2023-02-04T19:03:09.756Z,68.68
2023-02-04T19:05:38.969Z,69.21
2023-02-04T19:08:22.987Z,69.01
2023-02-04T19:10:51.467Z,69.18
2023-02-04T19:13:22.274Z,69.45
2023-02-04T19:15:57.057Z,69.34
2023-02-04T19:18:26.822Z,69.62
2023-02-04T19:20:54.672Z,69.94
2023-02-04T19:23:24.414Z,70.11
2023-02-04T19:25:52.499Z,70.22
2023-02-04T19:28:37.307Z,70.74
2023-02-04T19:31:05.851Z,70.81
2023-02-04T19:33:37.926Z,70.53
2023-02-04T19:36:21.574Z,70.91
2023-02-04T19:38:53.187Z,71.08
2023-02-04T19:41:29.897Z,71.25
2023-02-04T19:44:09.851Z,71.54
2023-02-04T19:46:37.943Z,71.62
2023-02-04T19:49:17.708Z,71.68
2023-02-04T19:51:50.152Z,71.95
2023-02-04T19:54:23.234Z,71.74
2023-02-04T19:56:50.070Z,72.00
2023-02-04T19:59:28.769Z,72.49
2023-02-04T20:02:03.701Z,72.52
2023-02-04T20:04:36.833Z,72.33
2023-02-04T20:07:03.771Z,72.45
2023-02-04T20:09:35.120Z,72.93
2023-02-04T20:12:06.402Z,72.94
2023-02-04T20:14:52.060Z,72.96
2023-02-04T20:17:39.087Z,72.96
2023-02-04T20:20:16.165Z,73.13
2023-02-04T20:22:48.008Z,73.09
2023-02-04T20:25:42.068Z,73.08
2023-02-04T20:28:38.464Z,73.26
2023-02-04T20:31:24.928Z,73.44
2023-02-04T20:33:54.344Z,73.55
2023-02-04T20:36:43.742Z,73.43
2023-02-04T20:39:35.164Z,73.80
2023-02-04T20:42:21.773Z,73.82
2023-02-04T20:44:49.515Z,73.69
2023-02-04T20:47:20.813Z,73.70
2023-02-04T20:49:55.232Z,74.10
2023-02-04T20:52:57.367Z,73.95
2023-02-04T20:55:27.444Z,73.90
2023-02-04T20:57:55.253Z,73.87
2023-02-04T21:00:30.358Z,73.81
2023-02-04T21:02:58.936Z,74.14
2023-02-04T21:05:26.107Z,73.64
2023-02-04T21:07:56.403Z,74.24
2023-02-04T21:10:23.153Z,74.09
2023-02-04T21:12:51.869Z,74.05
2023-02-04T21:15:18.790Z,73.94
2023-02-04T21:17:45.585Z,73.95
2023-02-04T21:20:13.856Z,74.41
2023-02-04T21:22:40.739Z,73.95
2023-02-04T21:25:09.163Z,74.20
2023-02-04T21:27:36.019Z,74.44
2023-02-04T21:30:03.138Z,74.15
2023-02-04T21:32:29.954Z,74.32
2023-02-04T21:34:57.012Z,74.39
2023-02-04T21:37:24.317Z,74.26
2023-02-04T21:39:51.122Z,74.38
2023-02-04T21:42:18.115Z,74.27
2023-02-04T21:44:45.061Z,74.14
2023-02-04T21:47:11.968Z,74.33
2023-02-04T21:49:41.339Z,74.50
2023-02-04T21:52:10.452Z,75.23
2023-02-04T21:54:37.723Z,75.12
2023-02-04T21:57:05.364Z,75.39
2023-02-04T21:59:32.397Z,75.16
2023-02-04T22:01:59.468Z,74.85
2023-02-04T22:04:26.360Z,74.95
2023-02-04T22:06:53.329Z,75.07
2023-02-04T22:09:20.148Z,74.95
2023-02-04T22:11:48.676Z,75.07
2023-02-04T22:14:15.760Z,74.90
2023-02-04T22:16:42.642Z,75.13
2023-02-04T22:19:09.463Z,75.37
2023-02-04T22:21:36.399Z,75.11
2023-02-04T22:24:03.293Z,75.12
2023-02-04T22:26:30.056Z,75.61
2023-02-04T22:28:57.126Z,75.51
2023-02-04T22:31:24.484Z,75.74
2023-02-04T22:33:51.429Z,75.57
2023-02-04T22:36:18.604Z,75.70
2023-02-04T22:38:45.720Z,75.65
2023-02-04T22:41:12.561Z,75.98
2023-02-04T22:43:39.477Z,75.97
2023-02-04T22:46:06.668Z,76.01
2023-02-04T22:48:33.590Z,76.28
2023-02-04T22:51:03.378Z,76.29
2023-02-04T22:53:30.139Z,76.46
2023-02-04T22:55:56.973Z,76.19
2023-02-04T22:58:23.958Z,75.88
2023-02-04T23:00:50.984Z,76.40
2023-02-04T23:03:17.829Z,76.39
2023-02-04T23:05:45.216Z,75.94
2023-02-04T23:08:11.990Z,76.16
2023-02-04T23:10:39.119Z,75.91
2023-02-04T23:13:07.343Z,75.93
2023-02-04T23:15:34.402Z,75.87
2023-02-04T23:18:01.739Z,76.00
2023-02-04T23:20:28.829Z,76.17
2023-02-04T23:22:55.850Z,76.11
2023-02-04T23:25:22.968Z,75.75
2023-02-04T23:27:50.262Z,75.61
2023-02-04T23:30:18.037Z,76.12
2023-02-04T23:32:44.889Z,75.94
2023-02-04T23:35:11.820Z,76.35
2023-02-04T23:37:38.647Z,76.09
2023-02-04T23:40:06.701Z,76.29
2023-02-04T23:42:34.372Z,76.12
2023-02-04T23:45:01.221Z,76.32
2023-02-04T23:47:28.140Z,76.17
2023-02-04T23:49:55.170Z,76.47
2023-02-04T23:52:21.930Z,76.33
2023-02-04T23:54:48.715Z,76.43
2023-02-04T23:57:15.576Z,76.62
2023-02-04T23:59:42.622Z,76.70
